• Join FlightAware (Why Join?)
  • Login
  • US Flag 
01:38AM EDT


 

Airport Tracker/Info


-or-


 

Live Flight TrackerFlight Track Log ✈ EJA922 ✈ 15-Jul-2013 ✈ KBMG - KHPN

Flight Track Log - Related Links

Times and Time Zones

All times are in EDT time to prevent confusion due to time zone crossing. See the EJA922 flight status page for this flight to view local times or setup timezone preferences in your user account.

Time Position Orientation Groundspeed Altitude Reporting Facility
EDT Latitude Longitude Course Direction KTS MPH feet Rate Location/Type
04:23PM 40.9718 -74.7159 75° East  Level Estimated
04:24PM 40.9847 -74.5848 83° East  Level Estimated
04:25PM 40.9975 -74.4537 83° East  Level Estimated
04:26PM 41.0100 -74.3225 83° East  Level Estimated
04:27PM 41.0225 -74.1912 83° East  Level Estimated
04:28PM 41.0347 -74.0599 83° East  Level Estimated
04:29PM 41.0469 -73.9286 83° East  Level Estimated
04:30PM 41.0589 -73.7972 83° East  Level Estimated
04:31PM 41.0669 -73.7076 83° East  Level Estimated
04:32PM 41.0669 -73.7076 37° Northeast  Level Estimated
04:33PM 41.0669 -73.7076 37° Northeast  Level Estimated
04:34PM 41.0669 -73.7076 37° Northeast  Level Estimated
04:35PM 41.0669 -73.7076 37° Northeast  Level Estimated
04:36PM 41.0669 -73.7076 37° Northeast  Level Estimated
04:36PM 41.4500 -73.8833 37° Northeast 283 326 6,000  Level New York TRACON
04:37PM 41.0669 -73.7076 37° Northeast  Level Estimated
04:37PM 41.3833 -73.8333 151° Southeast 281 323 5,600  Level New York TRACON
04:38PM 41.0669 -73.7076 37° Northeast  Level Estimated
04:38PM 41.3167 -73.7833 151° Southeast 282 325 4,000  Level New York TRACON
04:39PM 41.0669 -73.7076 37° Northeast  Level Estimated
04:39PM 41.2667 -73.7000 129° Southeast 280 322 4,000  Level New York TRACON
04:40PM 41.0669 -73.7076 37° Northeast  Level Estimated
04:40PM 41.2333 -73.6333 124° Southeast 269 310 4,000  Level New York TRACON
04:41PM 41.0669 -73.7076 37° Northeast  Level Estimated
04:41PM 41.1667 -73.6000 159° South 257 296 2,500  Level New York TRACON
04:42PM 41.1000 -73.5833 169° South 246 283 2,000 -300 Descending New York TRACON
04:43PM 41.0333 -73.5833 180° South 235 270 2,000  Level New York TRACON
04:44PM 40.9833 -73.6167 207° Southwest 223 257 2,000 -180 Level New York TRACON
04:45PM 41.0000 -73.6667 294° West 204 235 1,700 -600 Descending New York TRACON
04:46PM 41.0333 -73.6833 339° North 141 162 900 -840 Descending New York TRACON
04:48PM 41.0667 -73.7000 246° West  Level FlightAware Approximate
04:55PM 41.0669 -73.7076 246° West  Level Estimated
04:56PM 41.0667 -73.7000 246° West  Level FlightAware Approximate
04:57PM 41.0669 -73.7076 246° West  Level Estimated
04:58PM 41.0667 -73.7000 246° West  Level FlightAware Approximate
04:59PM 41.0669 -73.7076 246° West  Level Estimated
05:00PM 41.0667 -73.7000 246° West  Level FlightAware Approximate
05:01PM 41.0669 -73.7076 246° West  Level Estimated
05:02PM 41.0667 -73.7000 246° West  Level FlightAware Approximate